createdAt,value
2022-11-08T00:03:23.254Z,70.44
2022-11-08T00:09:02.442Z,70.48
2022-11-08T00:14:22.933Z,70.89
2022-11-08T00:19:44.262Z,70.55
2022-11-08T00:25:05.362Z,70.66
2022-11-08T00:30:25.912Z,70.92
2022-11-08T00:35:46.820Z,70.90
2022-11-08T00:41:07.576Z,70.73
2022-11-08T00:46:28.534Z,71.06
2022-11-08T00:51:49.420Z,70.45
2022-11-08T00:57:10.363Z,70.68
2022-11-08T01:02:31.259Z,70.91
2022-11-08T01:07:52.113Z,70.57
2022-11-08T01:13:13.133Z,70.81
2022-11-08T01:18:33.792Z,70.56
2022-11-08T01:23:54.936Z,70.94
2022-11-08T01:29:15.527Z,70.85
2022-11-08T01:34:36.342Z,70.97
2022-11-08T01:39:57.089Z,70.79
2022-11-08T01:45:36.785Z,70.87
2022-11-08T01:50:59.014Z,70.52
2022-11-08T01:56:21.007Z,70.42
2022-11-08T02:01:42.167Z,70.63
2022-11-08T02:07:04.239Z,70.45
2022-11-08T02:12:25.807Z,71.02
2022-11-08T02:17:46.337Z,70.38
2022-11-08T02:23:06.997Z,70.38
2022-11-08T02:28:27.671Z,69.80
2022-11-08T02:33:49.021Z,69.92
2022-11-08T02:39:09.723Z,70.49
2022-11-08T02:44:30.650Z,70.39
2022-11-08T02:49:51.173Z,70.43
2022-11-08T02:55:12.177Z,70.08
2022-11-08T03:00:32.805Z,70.00
2022-11-08T03:05:53.424Z,70.32
2022-11-08T03:11:14.234Z,69.81
2022-11-08T03:16:35.073Z,69.99
2022-11-08T03:21:55.747Z,69.79
2022-11-08T03:27:19.096Z,69.47
2022-11-08T03:32:39.767Z,69.78
2022-11-08T03:38:00.560Z,69.32
2022-11-08T03:43:21.367Z,69.86
2022-11-08T03:48:42.280Z,70.21
2022-11-08T03:54:02.809Z,69.43
2022-11-08T03:59:23.576Z,69.71
2022-11-08T04:04:44.130Z,69.07
2022-11-08T04:10:05.782Z,69.42
2022-11-08T04:15:27.427Z,69.76
2022-11-08T04:21:06.968Z,69.78
2022-11-08T04:26:27.560Z,69.26
2022-11-08T04:31:48.336Z,68.82
2022-11-08T04:37:09.201Z,69.51
2022-11-08T04:42:30.027Z,69.03
2022-11-08T04:47:51.045Z,68.44
2022-11-08T04:53:11.878Z,68.95
2022-11-08T04:58:34.713Z,69.66
2022-11-08T05:03:55.467Z,69.29
2022-11-08T05:09:16.022Z,68.58
2022-11-08T05:14:36.686Z,68.64
2022-11-08T05:20:16.118Z,68.37
2022-11-08T05:25:40.437Z,69.97
2022-11-08T05:31:01.043Z,69.08
2022-11-08T05:36:21.761Z,69.04
2022-11-08T05:41:42.612Z,69.29
2022-11-08T05:47:03.490Z,69.49
2022-11-08T05:52:24.072Z,69.10
2022-11-08T05:57:44.785Z,69.24
2022-11-08T06:03:06.566Z,69.66
2022-11-08T06:08:27.112Z,69.63
2022-11-08T06:13:47.624Z,69.25
2022-11-08T06:19:08.099Z,69.71
2022-11-08T06:24:29.178Z,69.29
2022-11-08T06:29:50.035Z,69.32
2022-11-08T06:35:11.034Z,69.36
2022-11-08T06:40:34.825Z,69.69
2022-11-08T06:45:55.563Z,69.83
2022-11-08T06:51:16.931Z,70.10
2022-11-08T06:56:37.708Z,70.30
2022-11-08T07:01:59.062Z,70.37
2022-11-08T07:07:19.869Z,70.24
2022-11-08T07:12:40.845Z,70.54
2022-11-08T07:18:12.333Z,70.69
2022-11-08T07:23:33.155Z,70.92
2022-11-08T07:28:53.770Z,71.22
2022-11-08T07:34:14.728Z,71.38
2022-11-08T07:39:35.202Z,71.63
2022-11-08T07:44:56.032Z,71.45
2022-11-08T07:50:18.082Z,71.74
2022-11-08T07:55:39.732Z,71.60
2022-11-08T08:01:02.345Z,71.77
2022-11-08T08:06:24.514Z,72.02
2022-11-08T08:11:45.376Z,72.16
2022-11-08T08:17:06.034Z,72.01
2022-11-08T08:22:26.972Z,72.06
2022-11-08T08:27:52.016Z,72.14
2022-11-08T08:33:29.972Z,72.14
2022-11-08T08:38:50.863Z,72.30
2022-11-08T08:44:11.485Z,72.55
2022-11-08T08:49:32.441Z,72.34
2022-11-08T08:54:53.252Z,72.36
2022-11-08T09:06:00.390Z,72.17
2022-11-08T09:11:21.146Z,72.47
2022-11-08T09:16:42.199Z,71.98
2022-11-08T09:22:02.980Z,72.14
2022-11-08T09:27:23.696Z,71.94
2022-11-08T09:33:00.444Z,71.91
2022-11-08T09:38:22.366Z,72.17
2022-11-08T09:43:56.276Z,72.19
2022-11-08T09:49:20.369Z,72.04
2022-11-08T09:54:46.940Z,71.71
2022-11-08T10:00:11.632Z,71.56
2022-11-08T10:05:38.825Z,71.49
2022-11-08T10:10:59.522Z,70.95
2022-11-08T10:16:30.961Z,70.96
2022-11-08T10:21:54.574Z,70.89
2022-11-08T10:27:21.299Z,70.64
2022-11-08T10:32:42.520Z,70.13
2022-11-08T10:38:03.699Z,70.50
2022-11-08T10:43:40.867Z,70.46
2022-11-08T10:49:20.240Z,70.23
2022-11-08T10:54:48.915Z,70.19
2022-11-08T11:00:18.715Z,69.81
2022-11-08T11:05:44.236Z,69.32
2022-11-08T11:11:24.037Z,69.00
2022-11-08T11:16:56.467Z,68.88
2022-11-08T11:22:25.165Z,68.80
2022-11-08T11:27:49.306Z,68.41
2022-11-08T11:33:24.182Z,68.14
2022-11-08T11:39:05.022Z,68.14
2022-11-08T11:44:28.674Z,67.79
2022-11-08T11:49:50.816Z,67.53
2022-11-08T11:55:15.490Z,67.46
2022-11-08T12:00:39.300Z,66.80
2022-11-08T12:06:10.123Z,66.70
2022-11-08T12:11:36.264Z,66.59
2022-11-08T12:17:06.042Z,66.50
2022-11-08T12:22:33.183Z,66.06
2022-11-08T12:28:00.411Z,65.93
2022-11-08T12:33:21.295Z,66.01
2022-11-08T12:38:51.090Z,65.38
2022-11-08T12:44:27.113Z,64.72
2022-11-08T12:49:50.973Z,64.58
2022-11-08T12:55:32.047Z,64.64
2022-11-08T13:00:57.033Z,64.13
2022-11-08T13:06:24.373Z,64.20
2022-11-08T13:11:49.732Z,64.24
2022-11-08T13:17:18.490Z,63.82
2022-11-08T13:22:40.351Z,63.92
2022-11-08T13:28:01.077Z,63.96
2022-11-08T13:33:30.619Z,63.88
2022-11-08T13:39:04.393Z,64.01
2022-11-08T13:45:00.825Z,63.84
2022-11-08T13:50:27.777Z,63.82
2022-11-08T13:56:06.667Z,63.43
2022-11-08T14:01:27.531Z,63.59
2022-11-08T14:07:07.378Z,63.42
2022-11-08T14:12:47.677Z,63.56
2022-11-08T14:18:18.588Z,63.79
2022-11-08T14:23:40.621Z,63.64
2022-11-08T14:29:01.158Z,63.71
2022-11-08T14:34:33.385Z,63.53
2022-11-08T14:39:54.137Z,63.58
2022-11-08T14:45:15.552Z,63.44
2022-11-08T14:50:36.115Z,63.51
2022-11-08T14:56:17.209Z,63.71
2022-11-08T15:01:38.035Z,63.60
2022-11-08T15:06:59.066Z,63.69
2022-11-08T15:12:21.663Z,64.01
2022-11-08T15:17:42.384Z,64.06
2022-11-08T15:23:03.178Z,64.15
2022-11-08T15:28:26.003Z,64.34
2022-11-08T15:33:46.563Z,64.11
2022-11-08T15:39:07.367Z,64.71
2022-11-08T15:44:28.253Z,64.87
2022-11-08T15:49:49.377Z,64.73
2022-11-08T15:55:13.974Z,64.66
2022-11-08T16:00:38.426Z,64.43
2022-11-08T16:05:59.234Z,64.46
2022-11-08T16:11:20.960Z,64.92
2022-11-08T16:16:41.702Z,65.48
2022-11-08T16:22:07.313Z,64.63
2022-11-08T16:27:27.885Z,64.89
2022-11-08T16:32:49.043Z,64.99
2022-11-08T16:38:10.160Z,65.04
2022-11-08T16:43:31.526Z,65.34
2022-11-08T16:48:56.585Z,64.91
2022-11-08T16:54:19.645Z,64.70
2022-11-08T16:59:40.573Z,64.33
2022-11-08T17:05:01.323Z,64.99
2022-11-08T17:10:24.599Z,64.91
2022-11-08T17:15:45.972Z,65.32
2022-11-08T17:21:30.322Z,65.37
2022-11-08T17:26:47.741Z,65.14
2022-11-08T17:32:08.303Z,64.91
2022-11-08T17:37:29.187Z,64.76
2022-11-08T17:42:50.099Z,64.99
2022-11-08T17:48:10.553Z,65.06
2022-11-08T17:53:32.985Z,64.88
2022-11-08T17:58:53.765Z,65.05
2022-11-08T18:04:14.513Z,65.36
2022-11-08T18:09:35.470Z,65.85
2022-11-08T18:14:56.341Z,66.14
2022-11-08T18:20:17.096Z,66.34
2022-11-08T18:25:39.361Z,66.48
2022-11-08T18:31:04.174Z,66.83
2022-11-08T18:36:25.879Z,66.87
2022-11-08T18:41:46.701Z,67.01
2022-11-08T18:47:07.456Z,66.82
2022-11-08T18:52:28.800Z,67.27
2022-11-08T18:57:49.632Z,67.59
2022-11-08T19:03:10.364Z,67.36
2022-11-08T19:08:32.781Z,67.32
2022-11-08T19:13:53.734Z,67.67
2022-11-08T19:19:14.327Z,67.72
2022-11-08T19:24:35.296Z,67.73
2022-11-08T19:29:55.919Z,67.89
2022-11-08T19:35:16.801Z,67.86
2022-11-08T19:40:40.636Z,68.06
2022-11-08T19:46:04.517Z,67.70
2022-11-08T19:51:27.178Z,68.15
2022-11-08T19:57:04.321Z,67.89
2022-11-08T20:02:26.296Z,68.26
2022-11-08T20:07:47.153Z,68.16
2022-11-08T20:13:08.263Z,68.47
2022-11-08T20:18:29.068Z,68.01
2022-11-08T20:23:52.115Z,68.07
2022-11-08T20:29:14.771Z,68.32
2022-11-08T20:34:35.445Z,68.41
2022-11-08T20:39:56.352Z,68.35
2022-11-08T20:45:17.144Z,68.26
2022-11-08T20:50:39.391Z,68.75
2022-11-08T20:56:01.075Z,68.58
2022-11-08T21:01:23.231Z,68.53
2022-11-08T21:06:44.318Z,68.55
2022-11-08T21:12:05.268Z,68.54
2022-11-08T21:17:26.076Z,68.42
2022-11-08T21:22:47.026Z,68.90
2022-11-08T21:28:09.366Z,68.56
2022-11-08T21:33:30.146Z,68.77
2022-11-08T21:38:51.097Z,68.93
2022-11-08T21:44:11.912Z,68.72
2022-11-08T21:49:32.821Z,68.85
2022-11-08T21:54:53.816Z,68.72
2022-11-08T22:00:14.946Z,69.24
2022-11-08T22:05:35.664Z,69.11
2022-11-08T22:10:56.442Z,68.99
2022-11-08T22:16:17.325Z,69.26
2022-11-08T22:21:38.292Z,69.18
2022-11-08T22:26:59.453Z,69.27
2022-11-08T22:32:20.288Z,68.89
2022-11-08T22:37:41.165Z,68.98
2022-11-08T22:43:02.063Z,69.23
2022-11-08T22:48:22.999Z,68.74
2022-11-08T22:53:43.569Z,68.87
2022-11-08T22:59:04.382Z,68.82
2022-11-08T23:04:25.327Z,68.52
2022-11-08T23:09:45.974Z,68.71
2022-11-08T23:15:25.354Z,68.72
2022-11-08T23:21:04.811Z,68.52
2022-11-08T23:26:44.026Z,68.79
2022-11-08T23:32:04.532Z,68.87
2022-11-08T23:37:25.392Z,68.93
2022-11-08T23:43:04.479Z,68.74
2022-11-08T23:48:26.864Z,68.68
2022-11-08T23:53:47.416Z,68.56
2022-11-08T23:59:08.379Z,68.89
